Irricana, Canada
Current Conditions -  °F | °C
As of 10:00 PM on Monday 26 Jan 2015 (Local Time) from CYYC Reporting Station
Broken Clouds Broken Clouds  
Wind Chill: 46°   Ceiling: 25000
Heat Index: 48°   Visibility: 15mi
Dew Point: 27°   Wind: 5mph
Humidity: 43%   Direction: 280°W
Pressure: 29.73"   Gusts: NA
Location:  51.32°N, 113.62°W
Report Text: CYYC 270500Z 28004KT 210V340 15SM BKN250 09/M03 A2973 RMK CI5 SLP092 DENSITY ALT 3900FT
Loading
Personal Weather Stations






























Interactive Weather Map New forecast layout! Learn more

10-Day Weather Forecast

Advertisements
Track Severe Weather on mobile